Time;durP1;ratioP1;P1;durP2;ratioP2;P2;SDS_P1;SDS_P2;PMS_P1;PMS_P2;Temp;Humidity;BMP_temperature;BMP_pressure;BME280_temperature;BME280_humidity;BME280_pressure;Samples;Min_cycle;Max_cycle;Signal;HPM_P1;HPM_P2
2021/12/28 00:00:15;;;;;;;8.20;6.10;;;6.00;99.90;;;;;;6277598;22;20192;-88
2021/12/28 00:02:44;;;;;;;8.27;5.67;;;6.00;99.90;;;;;;6274132;22;20189;-89
2021/12/28 00:05:13;;;;;;;8.40;5.97;;;6.00;99.90;;;;;;6275820;22;20168;-90
2021/12/28 00:07:41;;;;;;;7.83;5.70;;;5.90;99.90;;;;;;6275602;22;20216;-87
2021/12/28 00:10:12;;;;;;;5.83;5.00;;;5.90;99.90;;;;;;6279233;22;20186;-87
2021/12/28 00:12:40;;;;;;;6.17;4.57;;;6.00;99.90;;;;;;6277665;22;20188;-88
2021/12/28 00:15:20;;;;;;;5.13;4.33;;;6.00;99.90;;;;;;6276547;22;20173;-86
2021/12/28 00:18:03;;;;;;;5.30;4.10;;;5.90;99.90;;;;;;6277846;22;20290;-86
2021/12/28 00:20:35;;;;;;;4.93;4.30;;;5.90;99.90;;;;;;6278932;22;20153;-87
2021/12/28 00:23:04;;;;;;;4.90;4.03;;;5.90;99.90;;;;;;6277969;22;20192;-89
2021/12/28 00:25:31;;;;;;;4.20;3.80;;;6.00;99.90;;;;;;6277697;22;20251;-88
2021/12/28 00:27:59;;;;;;;4.77;3.70;;;6.00;99.90;;;;;;6278298;22;20291;-90
2021/12/28 00:30:26;;;;;;;5.00;3.90;;;6.00;99.90;;;;;;6279412;22;20456;-89
2021/12/28 00:32:56;;;;;;;5.50;3.70;;;6.00;99.90;;;;;;6275840;22;20200;-90
2021/12/28 00:35:25;;;;;;;5.43;3.65;;;6.00;99.90;;;;;;6275053;22;20620;-89
2021/12/28 00:37:54;;;;;;;3.77;3.40;;;6.00;99.90;;;;;;6275377;22;20216;-88
2021/12/28 00:40:22;;;;;;;4.23;3.30;;;6.00;99.90;;;;;;6279113;22;20247;-86
2021/12/28 00:42:49;;;;;;;4.07;3.17;;;6.00;99.90;;;;;;6279142;22;20199;-86
2021/12/28 00:45:16;;;;;;;3.63;2.90;;;6.00;99.90;;;;;;6278114;22;20169;-86
2021/12/28 00:47:44;;;;;;;3.57;3.13;;;6.00;99.90;;;;;;6279876;22;20244;-86
2021/12/28 00:50:13;;;;;;;3.73;3.27;;;6.00;99.90;;;;;;6280518;22;20192;-87
2021/12/28 00:52:40;;;;;;;3.27;2.97;;;5.90;99.90;;;;;;6279541;22;20192;-86
2021/12/28 00:55:11;;;;;;;4.63;3.23;;;6.00;99.90;;;;;;6279310;22;20256;-86
2021/12/28 00:57:38;;;;;;;4.70;3.10;;;5.90;99.90;;;;;;6280437;22;20196;-86
2021/12/28 01:00:09;;;;;;;3.53;3.23;;;6.00;99.90;;;;;;6279068;22;20511;-90
2021/12/28 01:02:36;;;;;;;3.47;3.13;;;5.90;99.90;;;;;;6275710;22;20289;-91
2021/12/28 01:05:04;;;;;;;3.33;3.03;;;6.00;99.90;;;;;;6275798;22;20171;-89
2021/12/28 01:07:32;;;;;;;3.33;2.90;;;6.00;99.90;;;;;;6275428;22;20192;-89
2021/12/28 01:09:59;;;;;;;3.43;3.03;;;6.10;99.90;;;;;;6275627;22;20494;-89
2021/12/28 01:12:28;;;;;;;4.10;3.13;;;6.10;99.90;;;;;;6273549;22;20219;-90
2021/12/28 01:14:55;;;;;;;3.13;2.83;;;6.10;99.90;;;;;;6276672;22;20243;-85
2021/12/28 01:17:22;;;;;;;3.90;3.00;;;6.00;99.90;;;;;;6279334;22;20642;-86
2021/12/28 01:19:49;;;;;;;3.60;3.07;;;5.90;99.90;;;;;;6280157;22;20220;-86
2021/12/28 01:22:16;;;;;;;3.37;3.00;;;5.90;99.90;;;;;;6277972;22;20232;-87
2021/12/28 01:24:44;;;;;;;3.10;2.80;;;5.90;99.90;;;;;;6277347;22;20165;-86
2021/12/28 01:27:11;;;;;;;5.83;4.17;;;5.90;99.90;;;;;;6277609;22;20171;-87
2021/12/28 01:29:40;;;;;;;4.17;2.90;;;5.80;99.90;;;;;;6277724;22;20263;-87
2021/12/28 01:32:08;;;;;;;4.27;3.07;;;5.70;99.90;;;;;;6276468;22;20172;-89
2021/12/28 01:34:35;;;;;;;3.67;2.80;;;5.60;99.90;;;;;;6276638;22;20215;-88
2021/12/28 01:37:03;;;;;;;2.90;2.50;;;5.50;99.90;;;;;;6276736;22;20168;-86
2021/12/28 01:39:30;;;;;;;3.07;2.77;;;5.40;99.90;;;;;;6276805;22;20192;-86
2021/12/28 01:41:59;;;;;;;3.73;2.30;;;5.30;99.90;;;;;;6276305;22;20200;-89
2021/12/28 01:44:26;;;;;;;2.70;2.40;;;5.30;99.90;;;;;;6276719;22;20204;-86
2021/12/28 01:46:55;;;;;;;2.90;2.60;;;5.10;99.90;;;;;;6278876;22;20171;-85
2021/12/28 01:49:22;;;;;;;2.83;2.20;;;5.00;99.90;;;;;;6278350;22;20210;-86
2021/12/28 01:51:49;;;;;;;3.37;2.30;;;5.00;99.90;;;;;;6279082;22;20646;-85
2021/12/28 01:54:17;;;;;;;3.73;2.50;;;4.90;99.90;;;;;;6278396;22;20200;-87
2021/12/28 01:56:46;;;;;;;2.60;2.10;;;4.90;99.90;;;;;;6279270;22;20248;-86
2021/12/28 01:59:16;;;;;;;2.17;1.90;;;4.80;99.90;;;;;;6278561;22;20271;-85
2021/12/28 02:01:43;;;;;;;2.97;1.70;;;4.70;99.90;;;;;;6279739;22;20481;-86
2021/12/28 02:04:17;;;;;;;2.93;2.17;;;4.70;99.90;;;;;;6279647;22;20248;-86
2021/12/28 02:06:45;;;;;;;2.33;2.00;;;4.60;99.90;;;;;;6281221;22;20167;-85
2021/12/28 02:09:12;;;;;;;2.60;1.97;;;4.60;99.90;;;;;;6278661;22;20251;-86
2021/12/28 02:11:40;;;;;;;2.00;1.80;;;4.50;99.90;;;;;;6280705;22;20481;-85
2021/12/28 02:14:08;;;;;;;2.97;2.10;;;4.50;99.90;;;;;;6286355;22;20201;-89
2021/12/28 02:16:37;;;;;;;3.23;1.90;;;4.50;99.90;;;;;;6289506;22;20191;-87
2021/12/28 02:19:05;;;;;;;2.80;2.20;;;4.50;99.90;;;;;;6273588;22;20214;-89
2021/12/28 02:21:34;;;;;;;3.83;2.10;;;4.50;99.90;;;;;;6274627;22;20203;-87
2021/12/28 02:24:02;;;;;;;2.30;1.50;;;4.50;99.90;;;;;;6274064;22;20192;-86
2021/12/28 02:26:29;;;;;;;3.03;1.73;;;4.40;99.90;;;;;;6274842;22;20175;-90
2021/12/28 02:28:57;;;;;;;3.27;1.77;;;4.30;99.90;;;;;;6274153;22;20196;-88
2021/12/28 02:31:24;;;;;;;2.20;1.70;;;4.30;99.90;;;;;;6275252;22;20168;-88
2021/12/28 02:33:52;;;;;;;3.17;1.70;;;4.20;99.90;;;;;;6274273;22;20192;-85
2021/12/28 02:36:20;;;;;;;2.17;1.73;;;4.10;99.90;;;;;;6274386;22;20173;-88
2021/12/28 02:38:49;;;;;;;3.43;1.70;;;4.20;99.90;;;;;;6274184;22;20196;-86
2021/12/28 02:41:16;;;;;;;2.03;1.83;;;4.10;99.90;;;;;;6274639;22;20172;-86
2021/12/28 02:43:48;;;;;;;2.23;2.03;;;4.20;99.90;;;;;;6274696;22;20200;-87
2021/12/28 02:46:16;;;;;;;1.87;1.77;;;4.20;99.90;;;;;;6274757;22;20161;-87
2021/12/28 02:48:46;;;;;;;3.17;2.00;;;4.20;99.90;;;;;;6274214;22;20197;-86
2021/12/28 02:51:15;;;;;;;5.40;3.37;;;4.10;99.90;;;;;;6274688;22;20168;-86
2021/12/28 02:53:43;;;;;;;2.70;2.43;;;4.10;99.90;;;;;;6274047;22;20192;-87
2021/12/28 02:56:13;;;;;;;3.13;1.93;;;4.00;99.90;;;;;;6272715;22;20207;-88
2021/12/28 02:58:43;;;;;;;2.80;1.80;;;4.00;99.90;;;;;;6274450;22;20214;-86
2021/12/28 03:01:13;;;;;;;3.90;1.80;;;4.00;99.90;;;;;;6275563;22;20168;-85
2021/12/28 03:03:42;;;;;;;2.03;1.70;;;4.00;99.90;;;;;;6276057;22;20302;-87
2021/12/28 03:06:12;;;;;;;3.77;1.70;;;3.90;99.90;;;;;;6276557;22;20169;-88
2021/12/28 03:08:43;;;;;;;2.30;1.77;;;3.80;99.90;;;;;;6276364;22;20202;-85
2021/12/28 03:11:13;;;;;;;2.97;1.60;;;3.70;99.90;;;;;;6276694;22;20243;-82
2021/12/28 03:13:42;;;;;;;2.53;1.60;;;3.70;99.90;;;;;;6276244;22;20203;-83
2021/12/28 03:16:10;;;;;;;2.40;1.57;;;3.80;99.90;;;;;;6276589;22;20283;-86
2021/12/28 03:18:37;;;;;;;2.73;1.50;;;3.80;99.90;;;;;;6276066;22;20200;-89
2021/12/28 03:21:06;;;;;;;3.20;1.77;;;3.70;99.90;;;;;;6276865;22;20259;-84
2021/12/28 03:23:34;;;;;;;2.30;1.53;;;3.60;99.90;;;;;;6275807;22;20274;-83
2021/12/28 03:26:01;;;;;;;1.90;1.50;;;3.60;99.90;;;;;;6277160;22;20171;-84
2021/12/28 03:28:33;;;;;;;1.80;1.20;;;3.60;99.90;;;;;;6276540;22;20518;-84
2021/12/28 03:31:02;;;;;;;2.43;1.50;;;3.60;99.90;;;;;;6277047;22;20459;-86
2021/12/28 03:33:32;;;;;;;1.80;1.47;;;3.60;99.90;;;;;;6275924;22;20651;-84
2021/12/28 03:35:59;;;;;;;2.90;1.40;;;3.50;99.90;;;;;;6276886;22;20481;-85
2021/12/28 03:38:26;;;;;;;3.30;1.40;;;3.50;99.90;;;;;;6276845;22;20509;-87
2021/12/28 03:40:55;;;;;;;1.80;1.40;;;3.60;99.90;;;;;;6277123;22;20280;-83
2021/12/28 03:43:23;;;;;;;2.43;1.43;;;3.60;99.90;;;;;;6275948;22;20674;-84
2021/12/28 03:45:52;;;;;;;1.67;1.30;;;3.60;99.90;;;;;;6274741;22;20169;-85
2021/12/28 03:48:20;;;;;;;2.43;1.60;;;3.60;99.90;;;;;;6276397;22;20207;-83
2021/12/28 03:50:47;;;;;;;2.03;1.63;;;3.50;99.90;;;;;;6278361;22;20169;-85
2021/12/28 03:53:14;;;;;;;1.90;1.70;;;3.40;99.90;;;;;;6277282;22;20205;-83
2021/12/28 03:55:41;;;;;;;1.97;1.40;;;3.40;99.90;;;;;;6280630;22;20174;-83
2021/12/28 03:58:08;;;;;;;1.70;1.40;;;3.30;99.90;;;;;;6279579;22;20521;-83
2021/12/28 04:00:40;;;;;;;1.67;1.10;;;3.40;99.90;;;;;;6279963;22;20192;-83
2021/12/28 04:03:08;;;;;;;1.70;1.37;;;3.40;99.90;;;;;;6278940;22;20199;-83
2021/12/28 04:05:36;;;;;;;1.67;1.20;;;3.50;99.90;;;;;;6280058;22;20608;-85
2021/12/28 04:08:03;;;;;;;1.27;1.17;;;3.40;99.90;;;;;;6278959;22;20202;-83
2021/12/28 04:10:33;;;;;;;2.17;1.40;;;3.40;99.90;;;;;;6279195;22;20179;-82
2021/12/28 04:13:00;;;;;;;2.50;1.30;;;3.30;99.90;;;;;;6279291;22;20193;-85
2021/12/28 04:15:27;;;;;;;1.40;1.23;;;3.30;99.90;;;;;;6279720;22;20164;-84
2021/12/28 04:17:55;;;;;;;1.90;1.40;;;3.30;99.90;;;;;;6279928;22;20214;-83
2021/12/28 04:20:24;;;;;;;3.20;1.80;;;3.20;99.90;;;;;;6279977;22;20508;-83
2021/12/28 04:22:51;;;;;;;3.10;1.37;;;3.20;99.90;;;;;;6280334;22;20192;-83
2021/12/28 04:25:19;;;;;;;3.17;1.40;;;3.30;99.90;;;;;;6279961;22;20164;-84
2021/12/28 04:27:46;;;;;;;1.90;1.20;;;3.30;99.90;;;;;;6280063;22;20263;-83
2021/12/28 04:30:15;;;;;;;1.83;1.23;;;3.30;99.90;;;;;;6281231;22;20196;-83
2021/12/28 04:32:43;;;;;;;2.00;1.40;;;3.40;99.90;;;;;;6281039;22;20605;-83
2021/12/28 04:35:10;;;;;;;1.73;1.37;;;3.40;99.90;;;;;;6284146;22;20196;-88
2021/12/28 04:37:39;;;;;;;2.30;1.47;;;3.30;99.90;;;;;;6297999;22;20215;-87
2021/12/28 04:40:09;;;;;;;2.43;1.33;;;3.30;99.90;;;;;;6283741;22;20196;-83
2021/12/28 04:42:36;;;;;;;1.57;1.20;;;3.30;99.90;;;;;;6279915;22;20192;-83
2021/12/28 04:45:06;;;;;;;1.77;1.20;;;3.30;99.90;;;;;;6279957;22;20251;-84
2021/12/28 04:47:33;;;;;;;1.97;1.30;;;3.40;99.90;;;;;;6280100;22;20541;-85
2021/12/28 04:50:00;;;;;;;3.27;1.50;;;3.30;99.90;;;;;;6280602;22;20247;-86
2021/12/28 04:52:30;;;;;;;1.73;1.20;;;3.30;99.90;;;;;;6279997;22;20192;-84
2021/12/28 04:54:59;;;;;;;2.87;1.10;;;3.30;99.90;;;;;;6279864;22;20168;-85
2021/12/28 04:57:26;;;;;;;2.33;1.50;;;3.30;99.90;;;;;;6279330;22;20200;-83
2021/12/28 04:59:53;;;;;;;1.87;1.30;;;3.20;99.90;;;;;;6280452;22;20275;-83
2021/12/28 05:02:20;;;;;;;2.53;1.40;;;3.20;99.90;;;;;;6279629;22;20755;-86
2021/12/28 05:04:47;;;;;;;1.90;1.30;;;3.20;99.90;;;;;;6280043;22;20205;-83
2021/12/28 05:07:14;;;;;;;1.43;1.20;;;3.10;99.90;;;;;;6280638;22;20164;-84
2021/12/28 05:09:42;;;;;;;2.53;1.20;;;3.10;99.90;;;;;;6280889;22;20173;-83
2021/12/28 05:12:12;;;;;;;2.23;1.20;;;3.20;99.90;;;;;;6280300;22;20252;-84
2021/12/28 05:14:41;;;;;;;3.57;1.23;;;3.20;99.90;;;;;;6278628;22;20243;-84
2021/12/28 05:17:09;;;;;;;3.37;1.43;;;3.10;99.90;;;;;;6274641;22;20215;-85
2021/12/28 05:19:37;;;;;;;2.80;1.30;;;3.10;99.90;;;;;;6275389;22;20165;-85
2021/12/28 05:22:08;;;;;;;3.33;1.30;;;3.10;99.90;;;;;;6275196;22;20169;-85
2021/12/28 05:24:35;;;;;;;2.23;1.30;;;3.10;99.90;;;;;;6274694;22;20169;-84
2021/12/28 05:27:02;;;;;;;2.43;1.60;;;3.10;99.90;;;;;;6275114;22;20175;-86
2021/12/28 05:29:31;;;;;;;1.97;1.23;;;3.20;99.90;;;;;;6274696;22;20279;-86
2021/12/28 05:31:58;;;;;;;1.63;1.30;;;3.20;99.90;;;;;;6274833;22;20172;-85
2021/12/28 05:34:26;;;;;;;2.57;1.47;;;3.20;99.90;;;;;;6243762;22;20196;-88
2021/12/28 05:36:53;;;;;;;4.03;1.50;;;3.20;99.90;;;;;;6275335;22;20165;-85
2021/12/28 05:39:20;;;;;;;3.07;1.33;;;3.20;99.90;;;;;;6274425;22;20196;-85
2021/12/28 05:41:48;;;;;;;2.63;1.20;;;3.20;99.90;;;;;;6274569;22;20189;-85
2021/12/28 05:44:17;;;;;;;6.07;1.40;;;3.20;99.90;;;;;;6273688;22;20218;-84
2021/12/28 05:46:46;;;;;;;3.10;1.37;;;3.30;99.90;;;;;;6275313;22;20533;-86
2021/12/28 05:49:13;;;;;;;3.07;1.70;;;3.30;99.90;;;;;;6274443;22;20196;-85
2021/12/28 05:51:40;;;;;;;2.90;1.40;;;3.60;99.90;;;;;;6275455;22;20476;-85
2021/12/28 05:54:08;;;;;;;2.57;1.93;;;3.60;99.90;;;;;;6273973;22;20495;-85
2021/12/28 05:56:36;;;;;;;2.00;1.30;;;3.60;99.90;;;;;;6274145;22;20164;-85
2021/12/28 05:59:04;;;;;;;4.20;1.60;;;3.50;99.90;;;;;;6274717;22;20208;-86
2021/12/28 06:01:31;;;;;;;3.70;1.63;;;3.70;99.90;;;;;;6273125;22;20196;-86
2021/12/28 06:04:00;;;;;;;6.13;1.60;;;3.70;99.90;;;;;;6274942;22;20227;-85
2021/12/28 06:06:27;;;;;;;2.87;1.30;;;3.70;99.90;;;;;;6275963;22;20672;-86
2021/12/28 06:08:54;;;;;;;1.70;1.30;;;3.60;99.90;;;;;;6276079;22;20203;-85
2021/12/28 06:11:21;;;;;;;3.53;1.50;;;3.80;99.90;;;;;;6275853;22;20647;-86
2021/12/28 06:13:48;;;;;;;3.20;1.40;;;3.70;99.90;;;;;;6276065;22;20203;-85
2021/12/28 06:16:16;;;;;;;3.47;1.70;;;3.80;99.90;;;;;;6276680;22;20191;-84
2021/12/28 06:18:43;;;;;;;4.00;1.40;;;4.00;99.90;;;;;;6273759;22;20204;-86
2021/12/28 06:21:12;;;;;;;3.43;1.20;;;4.00;99.90;;;;;;6276652;22;20192;-87
2021/12/28 06:23:41;;;;;;;5.07;1.50;;;4.00;99.90;;;;;;6276210;22;20192;-85
2021/12/28 06:26:10;;;;;;;2.37;1.40;;;4.00;99.90;;;;;;6275456;22;20235;-86
2021/12/28 06:28:37;;;;;;;2.03;1.20;;;4.00;99.90;;;;;;6275930;22;20574;-84
2021/12/28 06:31:06;;;;;;;5.80;1.50;;;4.00;99.90;;;;;;6278442;22;20255;-84
2021/12/28 06:33:33;;;;;;;2.10;1.40;;;4.30;99.90;;;;;;6277547;22;20244;-83
2021/12/28 06:36:00;;;;;;;4.40;1.57;;;4.30;99.60;;;;;;6279202;22;20176;-86
2021/12/28 06:38:29;;;;;;;2.37;1.50;;;4.10;99.90;;;;;;6276300;22;20274;-84
2021/12/28 06:40:56;;;;;;;3.20;1.53;;;4.20;99.90;;;;;;6280217;22;20188;-84
2021/12/28 06:43:23;;;;;;;1.90;1.40;;;4.30;99.90;;;;;;6279310;22;20210;-84
2021/12/28 06:45:51;;;;;;;2.00;1.40;;;4.20;99.90;;;;;;6279494;22;20173;-86
2021/12/28 06:48:18;;;;;;;3.57;1.80;;;4.20;99.90;;;;;;6280530;22;20548;-84
2021/12/28 06:50:45;;;;;;;2.40;1.70;;;4.30;99.70;;;;;;6280015;22;20627;-87
2021/12/28 06:53:12;;;;;;;3.33;1.80;;;4.40;99.70;;;;;;6277255;22;20202;-84
2021/12/28 06:55:41;;;;;;;2.20;1.50;;;4.40;99.40;;;;;;6280123;22;20165;-84
2021/12/28 06:58:08;;;;;;;2.97;1.40;;;4.30;99.50;;;;;;6283794;22;20271;-87
2021/12/28 07:00:37;;;;;;;4.57;1.60;;;4.30;99.70;;;;;;6294090;22;20189;-86
2021/12/28 07:03:04;;;;;;;4.47;1.83;;;4.20;99.90;;;;;;6275489;22;20222;-89
2021/12/28 07:05:31;;;;;;;3.57;1.77;;;4.10;99.90;;;;;;6275969;22;20570;-90
2021/12/28 07:07:58;;;;;;;8.07;2.00;;;4.10;99.90;;;;;;6276425;22;20192;-86
2021/12/28 07:10:26;;;;;;;3.93;1.60;;;4.30;99.90;;;;;;6277259;22;20590;-89
2021/12/28 07:12:55;;;;;;;3.20;1.53;;;4.60;99.90;;;;;;6276351;22;20568;-87
2021/12/28 07:15:23;;;;;;;2.67;2.03;;;4.50;99.50;;;;;;6277707;22;20168;-88
2021/12/28 07:17:51;;;;;;;4.83;2.20;;;4.50;99.70;;;;;;6274268;22;20199;-87
2021/12/28 07:20:19;;;;;;;2.20;2.00;;;4.50;99.60;;;;;;6275189;22;20636;-88
2021/12/28 07:22:46;;;;;;;2.23;1.30;;;4.60;99.50;;;;;;6273912;22;20192;-88
2021/12/28 07:25:14;;;;;;;2.60;1.50;;;4.60;99.40;;;;;;6275020;22;20173;-85
2021/12/28 07:27:41;;;;;;;2.83;1.57;;;4.60;98.50;;;;;;6274524;22;20189;-88
2021/12/28 07:30:13;;;;;;;1.90;1.53;;;4.70;98.70;;;;;;6274645;22;20455;-87
2021/12/28 07:32:41;;;;;;;2.40;2.20;;;4.80;98.90;;;;;;6274530;22;20192;-88
2021/12/28 07:35:10;;;;;;;3.67;1.77;;;5.10;98.00;;;;;;6274510;22;20172;-87
2021/12/28 07:37:39;;;;;;;2.87;1.60;;;4.90;97.70;;;;;;6273697;22;20191;-87
2021/12/28 07:40:11;;;;;;;3.43;1.53;;;4.80;97.80;;;;;;6274848;22;20176;-87
2021/12/28 07:42:39;;;;;;;4.70;1.67;;;4.80;97.70;;;;;;6273558;22;20509;-87
2021/12/28 07:45:10;;;;;;;1.67;1.40;;;4.90;98.10;;;;;;6274730;22;20679;-87
2021/12/28 07:47:38;;;;;;;2.23;1.60;;;5.10;97.70;;;;;;6275753;22;20199;-87
2021/12/28 07:50:08;;;;;;;3.43;2.00;;;4.90;97.70;;;;;;6277032;22;20484;-87
2021/12/28 07:52:36;;;;;;;2.37;1.30;;;4.80;98.30;;;;;;6275769;22;20188;-87
2021/12/28 07:55:05;;;;;;;4.37;1.83;;;4.80;98.30;;;;;;6276703;22;20172;-87
2021/12/28 07:57:34;;;;;;;4.23;1.93;;;4.90;98.20;;;;;;6275620;22;20488;-87
2021/12/28 08:00:01;;;;;;;4.83;1.60;;;5.00;98.20;;;;;;6276765;22;20172;-88
2021/12/28 08:02:30;;;;;;;6.23;1.70;;;5.00;98.30;;;;;;6275969;22;20184;-87
2021/12/28 08:04:57;;;;;;;4.13;1.37;;;5.00;97.70;;;;;;6276199;22;20176;-89
2021/12/28 08:07:24;;;;;;;2.90;1.30;;;5.00;97.70;;;;;;6276118;22;20175;-87
2021/12/28 08:09:51;;;;;;;3.63;1.70;;;5.00;97.50;;;;;;6276885;22;20171;-88
2021/12/28 08:12:18;;;;;;;3.00;1.60;;;5.00;97.50;;;;;;6275606;22;20613;-87
2021/12/28 08:14:45;;;;;;;2.47;1.40;;;5.00;97.90;;;;;;6276275;22;20179;-87
2021/12/28 08:17:12;;;;;;;4.20;1.70;;;5.10;97.60;;;;;;6276567;22;20220;-87
2021/12/28 08:19:40;;;;;;;3.70;1.50;;;5.10;97.70;;;;;;6276241;22;20204;-87
2021/12/28 08:22:08;;;;;;;3.57;1.90;;;5.10;98.40;;;;;;6286217;22;20199;-88
2021/12/28 08:24:35;;;;;;;3.47;2.23;;;5.30;98.20;;;;;;6276991;22;20724;-88
2021/12/28 08:27:02;;;;;;;3.87;2.47;;;5.30;97.90;;;;;;6280135;22;20204;-86
2021/12/28 08:29:29;;;;;;;4.30;2.23;;;5.50;98.40;;;;;;6279963;22;20198;-87
2021/12/28 08:31:56;;;;;;;2.80;2.10;;;5.40;98.00;;;;;;6280483;22;20255;-86
2021/12/28 08:34:23;;;;;;;2.50;1.67;;;5.50;98.40;;;;;;6278597;22;20671;-86
2021/12/28 08:36:52;;;;;;;2.50;1.60;;;5.50;97.90;;;;;;6280599;22;20188;-86
2021/12/28 08:39:19;;;;;;;2.80;1.90;;;5.50;97.80;;;;;;6279058;22;20196;-86
2021/12/28 08:41:46;;;;;;;2.53;1.73;;;5.60;98.10;;;;;;6277371;22;20192;-89
2021/12/28 08:44:13;;;;;;;3.00;1.80;;;5.80;98.00;;;;;;6276863;22;20192;-92
2021/12/28 08:46:42;;;;;;;2.30;1.90;;;5.90;97.60;;;;;;6275868;22;20169;-90
2021/12/28 08:49:09;;;;;;;4.53;1.70;;;5.90;97.50;;;;;;6275070;22;20203;-89
2021/12/28 08:51:37;;;;;;;2.50;1.43;;;5.90;97.80;;;;;;6276914;22;20671;-89
2021/12/28 08:54:06;;;;;;;3.00;1.70;;;6.10;97.70;;;;;;6276716;22;20275;-90
2021/12/28 08:56:33;;;;;;;5.10;1.60;;;6.00;97.40;;;;;;6277246;22;20196;-86
2021/12/28 08:59:00;;;;;;;4.57;1.87;;;6.00;97.80;;;;;;6280711;22;20648;-87
2021/12/28 09:01:27;;;;;;;3.00;1.97;;;6.10;98.00;;;;;;6282275;22;20188;-87
2021/12/28 09:03:55;;;;;;;2.33;1.50;;;6.20;97.80;;;;;;6281195;22;20268;-86
2021/12/28 09:06:22;;;;;;;2.95;1.70;;;6.30;98.00;;;;;;6284783;22;20200;-88
2021/12/28 09:08:49;;;;;;;3.80;1.80;;;6.20;97.60;;;;;;6281577;22;20223;-87
2021/12/28 09:11:18;;;;;;;4.90;1.73;;;6.30;98.40;;;;;;6282568;22;20164;-86
2021/12/28 09:13:45;;;;;;;1.98;1.50;;;6.10;98.10;;;;;;6282928;22;20231;-86
2021/12/28 09:16:12;;;;;;;4.00;1.60;;;6.10;98.90;;;;;;6281226;22;20206;-87
2021/12/28 09:18:41;;;;;;;2.50;1.60;;;6.10;98.50;;;;;;6284200;22;20716;-88
2021/12/28 09:21:10;;;;;;;3.83;1.77;;;6.30;98.60;;;;;;6285449;22;20275;-87
2021/12/28 09:23:39;;;;;;;4.87;2.20;;;6.40;98.60;;;;;;6282412;22;20271;-86
2021/12/28 09:26:06;;;;;;;3.73;1.80;;;6.50;98.20;;;;;;6283554;22;20172;-87
2021/12/28 09:28:35;;;;;;;2.97;2.10;;;6.40;98.10;;;;;;6280584;22;20271;-89
2021/12/28 09:31:02;;;;;;;3.47;1.90;;;6.30;98.30;;;;;;6282039;22;20292;-86
2021/12/28 09:33:29;;;;;;;2.10;1.87;;;6.30;98.50;;;;;;6282944;22;20219;-86
2021/12/28 09:35:57;;;;;;;5.67;2.00;;;6.40;99.00;;;;;;6282040;22;20220;-87
2021/12/28 09:38:25;;;;;;;2.63;2.20;;;6.50;98.30;;;;;;6284008;22;20227;-86
2021/12/28 09:40:52;;;;;;;4.77;1.97;;;6.50;98.60;;;;;;6285798;22;20474;-86
2021/12/28 09:43:21;;;;;;;3.90;1.80;;;6.70;97.90;;;;;;6285568;22;20291;-86
2021/12/28 09:46:04;;;;;;;3.65;1.63;;;6.80;97.10;;;;;;6262271;22;20449;-86
2021/12/28 09:48:32;;;;;;;4.22;1.52;;;7.00;96.60;;;;;;6285191;22;20200;-86
2021/12/28 09:50:59;;;;;;;2.13;1.40;;;7.00;95.50;;;;;;6285930;22;20184;-86
2021/12/28 09:53:26;;;;;;;2.85;1.45;;;6.90;96.30;;;;;;6285448;22;20223;-86
2021/12/28 09:55:54;;;;;;;2.80;2.03;;;6.90;95.50;;;;;;6285167;22;20243;-86
2021/12/28 09:58:21;;;;;;;2.28;1.90;;;6.80;95.40;;;;;;6285878;22;20230;-86
2021/12/28 10:01:01;;;;;;;1.77;1.33;;;6.70;96.20;;;;;;6286523;22;20161;-86
2021/12/28 10:03:31;;;;;;;4.13;1.70;;;6.70;96.80;;;;;;6284867;22;20228;-86
2021/12/28 10:05:59;;;;;;;2.00;1.40;;;6.70;97.20;;;;;;6284545;22;20168;-86
2021/12/28 10:08:27;;;;;;;2.63;1.57;;;6.60;97.10;;;;;;6282519;22;20197;-86
2021/12/28 10:10:57;;;;;;;3.33;1.50;;;6.70;97.60;;;;;;6289042;22;20196;-86
2021/12/28 10:13:29;;;;;;;4.80;1.38;;;6.70;97.70;;;;;;6283634;22;20276;-86
2021/12/28 10:23:47;;;;;;;2.10;1.40;;;6.80;97.90;;;;;;6239330;23;20196;-87
2021/12/28 10:26:16;;;;;;;3.28;1.25;;;6.90;97.60;;;;;;6252922;23;20161;-86
2021/12/28 10:28:43;;;;;;;2.95;1.55;;;6.90;97.70;;;;;;6226198;23;20518;-86
2021/12/28 10:31:18;;;;;;;2.15;1.33;;;6.90;97.60;;;;;;6252653;23;20173;-86
2021/12/28 10:33:45;;;;;;;1.45;1.27;;;6.80;97.70;;;;;;6252158;22;20271;-87
2021/12/28 10:36:15;;;;;;;1.55;1.30;;;6.70;98.00;;;;;;6252991;23;20227;-86
2021/12/28 10:38:51;;;;;;;2.10;1.48;;;6.50;98.30;;;;;;6255864;23;20165;-86
2021/12/28 10:41:19;;;;;;;3.22;1.90;;;6.60;98.90;;;;;;6255568;23;20241;-86
2021/12/28 10:43:50;;;;;;;2.78;1.50;;;6.50;98.90;;;;;;6255135;23;20187;-86
2021/12/28 10:46:19;;;;;;;2.47;1.60;;;6.50;99.40;;;;;;6255514;23;20212;-86
2021/12/28 10:48:49;;;;;;;1.83;1.47;;;6.60;99.10;;;;;;6228966;22;20516;-87
2021/12/28 10:51:21;;;;;;;6.07;2.00;;;6.60;99.10;;;;;;6260733;23;20169;-86
2021/12/28 10:54:00;;;;;;;7.70;1.90;;;6.70;99.00;;;;;;6252686;22;20276;-86
2021/12/28 10:56:30;;;;;;;4.95;1.70;;;6.70;99.30;;;;;;6227642;23;20177;-86
2021/12/28 10:58:57;;;;;;;4.47;2.03;;;6.80;99.10;;;;;;6254487;22;20231;-86
2021/12/28 11:01:27;;;;;;;4.23;2.13;;;6.80;99.10;;;;;;6253108;23;20252;-86
2021/12/28 11:03:56;;;;;;;4.70;2.38;;;6.70;99.30;;;;;;6249953;22;20244;-86
2021/12/28 11:06:25;;;;;;;6.28;2.40;;;6.70;99.70;;;;;;6254403;23;20189;-86
2021/12/28 11:08:57;;;;;;;7.43;2.33;;;6.80;99.60;;;;;;6253245;22;20197;-85
2021/12/28 11:11:25;;;;;;;3.90;2.10;;;6.90;99.70;;;;;;6253774;23;20161;-86
2021/12/28 11:13:55;;;;;;;5.60;2.10;;;7.00;99.10;;;;;;6253453;22;20272;-85
2021/12/28 11:16:26;;;;;;;3.80;2.30;;;7.00;99.20;;;;;;6254114;22;20251;-87
2021/12/28 11:18:55;;;;;;;4.97;2.15;;;7.10;99.40;;;;;;6252812;22;20652;-86
2021/12/28 11:21:27;;;;;;;4.65;1.70;;;7.10;99.30;;;;;;6229394;23;20609;-86
2021/12/28 11:24:16;;;;;;;5.28;1.83;;;7.20;98.80;;;;;;6256038;22;20204;-86
2021/12/28 11:26:45;;;;;;;3.95;1.70;;;7.30;98.70;;;;;;6256512;23;20252;-86
2021/12/28 11:29:23;;;;;;;3.30;1.70;;;7.30;98.20;;;;;;6229535;23;20192;-86
2021/12/28 11:31:52;;;;;;;2.70;1.60;;;7.40;98.20;;;;;;6256477;23;20240;-86
2021/12/28 11:34:22;;;;;;;3.90;1.30;;;7.40;98.50;;;;;;6254685;22;20243;-86
2021/12/28 11:36:54;;;;;;;3.15;1.60;;;7.50;98.40;;;;;;6255916;23;20165;-86
2021/12/28 11:39:27;;;;;;;3.28;1.55;;;7.50;98.20;;;;;;6255016;22;20201;-86
2021/12/28 11:41:55;;;;;;;2.63;1.70;;;7.40;98.20;;;;;;6255587;23;20177;-86
2021/12/28 11:44:24;;;;;;;5.55;1.67;;;7.40;97.90;;;;;;6204669;23;20200;-86
2021/12/28 11:46:54;;;;;;;2.85;1.60;;;7.40;98.20;;;;;;6254851;23;20224;-86
2021/12/28 11:49:25;;;;;;;2.45;1.58;;;7.50;98.20;;;;;;6253352;22;20276;-86
2021/12/28 11:51:53;;;;;;;1.33;1.20;;;7.60;98.00;;;;;;6228359;23;20486;-86
2021/12/28 11:54:23;;;;;;;2.70;1.50;;;7.50;98.10;;;;;;6227563;23;20205;-86
2021/12/28 11:56:57;;;;;;;3.22;1.50;;;7.30;97.90;;;;;;6255160;23;20457;-86
2021/12/28 11:59:26;;;;;;;3.00;1.60;;;7.30;98.10;;;;;;6230692;23;20162;-86
2021/12/28 12:02:00;;;;;;;1.98;1.70;;;7.20;98.40;;;;;;6229212;23;20249;-86
2021/12/28 12:04:58;;;;;;;2.22;1.60;;;7.20;98.60;;;;;;6228698;22;20247;-86
2021/12/28 12:07:37;;;;;;;3.20;1.60;;;7.30;98.80;;;;;;6254998;22;20185;-86
2021/12/28 12:10:30;;;;;;;4.60;1.63;;;7.50;98.90;;;;;;6227902;23;20173;-86
2021/12/28 12:13:01;;;;;;;6.80;1.40;;;7.50;98.80;;;;;;6254905;23;20165;-86
2021/12/28 12:15:38;;;;;;;2.38;1.40;;;7.60;98.90;;;;;;6255029;23;20252;-87
2021/12/28 12:18:09;;;;;;;1.52;1.10;;;7.70;99.10;;;;;;6253177;22;20518;-86
2021/12/28 12:21:00;;;;;;;1.90;1.20;;;7.70;99.00;;;;;;6253295;23;20189;-86
2021/12/28 12:23:29;;;;;;;1.95;1.20;;;7.90;99.30;;;;;;6226552;23;20205;-88
2021/12/28 12:26:04;;;;;;;1.40;1.00;;;8.10;99.00;;;;;;6254895;23;20256;-86
2021/12/28 12:32:05;;;;;;;0.93;0.85;;;8.60;98.40;;;;;;6162373;23;20267;-88
2021/12/28 12:34:35;;;;;;;1.20;1.10;;;8.80;96.90;;;;;;6157383;23;20262;-88
2021/12/28 12:37:03;;;;;;;1.30;0.90;;;9.00;96.60;;;;;;6238324;23;20248;-89
2021/12/28 12:39:40;;;;;;;2.63;1.00;;;8.80;96.50;;;;;;6250446;23;20248;-88
2021/12/28 12:42:12;;;;;;;2.95;1.63;;;8.70;97.10;;;;;;6250180;23;20643;-88
2021/12/28 12:44:56;;;;;;;1.00;1.00;;;8.80;97.20;;;;;;6250777;23;20192;-88
2021/12/28 12:47:27;;;;;;;1.77;0.75;;;8.80;97.40;;;;;;6250607;23;20237;-88
2021/12/28 12:50:16;;;;;;;0.88;0.80;;;8.80;97.10;;;;;;6251181;23;20181;-87
2021/12/28 12:52:44;;;;;;;1.92;1.00;;;8.70;97.20;;;;;;6253755;22;20193;-87
2021/12/28 12:55:14;;;;;;;1.10;1.00;;;8.70;97.20;;;;;;6254920;23;20165;-87
2021/12/28 12:58:15;;;;;;;1.90;1.00;;;8.60;97.40;;;;;;6226976;22;20267;-87
2021/12/28 13:00:43;;;;;;;1.65;1.10;;;8.50;97.40;;;;;;6255089;23;20251;-87
2021/12/28 13:03:12;;;;;;;2.72;1.42;;;8.50;97.40;;;;;;6252318;22;20275;-87
2021/12/28 13:05:45;;;;;;;1.20;1.10;;;8.60;97.50;;;;;;6253794;23;20257;-88
2021/12/28 13:08:12;;;;;;;2.47;1.30;;;8.60;97.70;;;;;;6253009;22;20200;-87
2021/12/28 13:10:40;;;;;;;1.50;1.05;;;8.60;98.00;;;;;;6253254;23;20189;-88
2021/12/28 13:13:09;;;;;;;1.40;1.30;;;8.60;98.20;;;;;;6253386;22;20533;-87
2021/12/28 13:18:06;;;;;;;1.60;1.50;;;8.60;98.40;;;;;;6268523;22;20489;-89
2021/12/28 13:20:39;;;;;;;1.27;1.17;;;8.60;98.40;;;;;;6280559;22;20650;-89